sensor_id;sensor_type;location;lat;lon;timestamp;temperature;humidity
10062;DHT22;5070;52.382;5.270;2024-01-06T00:01:30;19.90;61.70
10062;DHT22;5070;52.382;5.270;2024-01-06T00:03:58;19.90;61.60
10062;DHT22;5070;52.382;5.270;2024-01-06T00:06:28;19.90;61.70
10062;DHT22;5070;52.382;5.270;2024-01-06T00:08:56;19.90;61.60
10062;DHT22;5070;52.382;5.270;2024-01-06T00:11:24;19.90;61.60
10062;DHT22;5070;52.382;5.270;2024-01-06T00:13:52;19.80;61.50
10062;DHT22;5070;52.382;5.270;2024-01-06T00:16:20;19.80;61.50
10062;DHT22;5070;52.382;5.270;2024-01-06T00:18:48;19.80;61.30
10062;DHT22;5070;52.382;5.270;2024-01-06T00:21:16;19.80;61.40
10062;DHT22;5070;52.382;5.270;2024-01-06T00:23:46;19.80;61.40
10062;DHT22;5070;52.382;5.270;2024-01-06T00:26:13;19.80;61.40
10062;DHT22;5070;52.382;5.270;2024-01-06T00:28:41;19.70;61.40
10062;DHT22;5070;52.382;5.270;2024-01-06T00:31:09;19.70;61.50
10062;DHT22;5070;52.382;5.270;2024-01-06T00:33:37;19.70;61.50
10062;DHT22;5070;52.382;5.270;2024-01-06T00:36:07;19.70;61.50
10062;DHT22;5070;52.382;5.270;2024-01-06T00:38:36;19.70;61.40
10062;DHT22;5070;52.382;5.270;2024-01-06T00:41:05;19.60;61.30
10062;DHT22;5070;52.382;5.270;2024-01-06T00:43:33;19.60;61.30
10062;DHT22;5070;52.382;5.270;2024-01-06T00:46:01;19.60;61.30
10062;DHT22;5070;52.382;5.270;2024-01-06T00:48:29;19.60;61.20
10062;DHT22;5070;52.382;5.270;2024-01-06T00:50:58;19.60;61.30
10062;DHT22;5070;52.382;5.270;2024-01-06T00:53:26;19.60;61.20
10062;DHT22;5070;52.382;5.270;2024-01-06T00:55:54;19.50;61.10
10062;DHT22;5070;52.382;5.270;2024-01-06T00:58:23;19.50;61.10
10062;DHT22;5070;52.382;5.270;2024-01-06T01:00:51;19.50;61.40
10062;DHT22;5070;52.382;5.270;2024-01-06T01:03:19;19.50;61.60
10062;DHT22;5070;52.382;5.270;2024-01-06T01:05:47;19.60;61.50
10062;DHT22;5070;52.382;5.270;2024-01-06T01:08:16;19.70;62.30
10062;DHT22;5070;52.382;5.270;2024-01-06T01:10:44;19.70;62.00
10062;DHT22;5070;52.382;5.270;2024-01-06T01:13:12;19.80;61.80
10062;DHT22;5070;52.382;5.270;2024-01-06T01:15:41;19.90;61.20
10062;DHT22;5070;52.382;5.270;2024-01-06T01:18:09;19.90;61.00
10062;DHT22;5070;52.382;5.270;2024-01-06T01:20:38;19.90;61.00
10062;DHT22;5070;52.382;5.270;2024-01-06T01:23:08;19.90;61.20
10062;DHT22;5070;52.382;5.270;2024-01-06T01:25:36;19.90;61.40
10062;DHT22;5070;52.382;5.270;2024-01-06T01:28:05;19.90;61.80
10062;DHT22;5070;52.382;5.270;2024-01-06T01:30:33;19.90;61.80
10062;DHT22;5070;52.382;5.270;2024-01-06T01:33:03;19.90;61.70
10062;DHT22;5070;52.382;5.270;2024-01-06T01:35:31;19.80;61.40
10062;DHT22;5070;52.382;5.270;2024-01-06T01:37:59;19.80;61.30
10062;DHT22;5070;52.382;5.270;2024-01-06T01:40:27;19.70;61.30
10062;DHT22;5070;52.382;5.270;2024-01-06T01:42:55;19.80;61.20
10062;DHT22;5070;52.382;5.270;2024-01-06T01:45:23;19.70;60.90
10062;DHT22;5070;52.382;5.270;2024-01-06T01:47:51;19.70;60.80
10062;DHT22;5070;52.382;5.270;2024-01-06T01:50:21;19.70;60.80
10062;DHT22;5070;52.382;5.270;2024-01-06T01:52:54;19.60;60.70
10062;DHT22;5070;52.382;5.270;2024-01-06T01:55:22;19.60;60.70
10062;DHT22;5070;52.382;5.270;2024-01-06T01:57:51;19.60;60.70
10062;DHT22;5070;52.382;5.270;2024-01-06T02:00:20;19.60;60.60
10062;DHT22;5070;52.382;5.270;2024-01-06T02:02:51;19.60;60.60
10062;DHT22;5070;52.382;5.270;2024-01-06T02:05:21;19.60;60.60
10062;DHT22;5070;52.382;5.270;2024-01-06T02:07:49;19.50;60.50
10062;DHT22;5070;52.382;5.270;2024-01-06T02:10:18;19.50;60.50
10062;DHT22;5070;52.382;5.270;2024-01-06T02:12:47;19.50;60.50
10062;DHT22;5070;52.382;5.270;2024-01-06T02:15:15;19.50;60.50
10062;DHT22;5070;52.382;5.270;2024-01-06T02:17:43;19.50;60.50
10062;DHT22;5070;52.382;5.270;2024-01-06T02:20:14;19.40;60.40
10062;DHT22;5070;52.382;5.270;2024-01-06T02:22:48;19.40;60.40
10062;DHT22;5070;52.382;5.270;2024-01-06T02:25:16;19.40;60.60
10062;DHT22;5070;52.382;5.270;2024-01-06T02:27:44;19.40;60.50
10062;DHT22;5070;52.382;5.270;2024-01-06T02:30:13;19.40;60.50
10062;DHT22;5070;52.382;5.270;2024-01-06T02:32:41;19.30;60.50
10062;DHT22;5070;52.382;5.270;2024-01-06T02:35:09;19.30;60.60
10062;DHT22;5070;52.382;5.270;2024-01-06T02:37:37;19.40;60.70
10062;DHT22;5070;52.382;5.270;2024-01-06T02:40:07;19.50;61.80
10062;DHT22;5070;52.382;5.270;2024-01-06T02:42:35;19.50;61.70
10062;DHT22;5070;52.382;5.270;2024-01-06T02:45:04;19.60;61.10
10062;DHT22;5070;52.382;5.270;2024-01-06T02:47:32;19.70;60.40
10062;DHT22;5070;52.382;5.270;2024-01-06T02:50:00;19.70;60.20
10062;DHT22;5070;52.382;5.270;2024-01-06T02:52:28;19.70;60.10
10062;DHT22;5070;52.382;5.270;2024-01-06T02:54:56;19.70;60.20
10062;DHT22;5070;52.382;5.270;2024-01-06T02:57:25;19.80;60.50
10062;DHT22;5070;52.382;5.270;2024-01-06T02:59:53;19.80;61.00
10062;DHT22;5070;52.382;5.270;2024-01-06T03:02:21;19.80;61.00
10062;DHT22;5070;52.382;5.270;2024-01-06T03:04:49;19.70;60.90
10062;DHT22;5070;52.382;5.270;2024-01-06T03:07:17;19.70;60.70
10062;DHT22;5070;52.382;5.270;2024-01-06T03:09:45;19.70;60.40
10062;DHT22;5070;52.382;5.270;2024-01-06T03:12:14;19.60;60.20
10062;DHT22;5070;52.382;5.270;2024-01-06T03:14:43;19.60;60.10
10062;DHT22;5070;52.382;5.270;2024-01-06T03:17:11;19.60;60.00
10062;DHT22;5070;52.382;5.270;2024-01-06T03:19:39;19.50;59.90
10062;DHT22;5070;52.382;5.270;2024-01-06T03:22:07;19.50;59.90
10062;DHT22;5070;52.382;5.270;2024-01-06T03:24:35;19.50;59.90
10062;DHT22;5070;52.382;5.270;2024-01-06T03:27:04;19.50;59.90
10062;DHT22;5070;52.382;5.270;2024-01-06T03:29:32;19.50;59.90
10062;DHT22;5070;52.382;5.270;2024-01-06T03:32:01;19.50;59.90
10062;DHT22;5070;52.382;5.270;2024-01-06T03:34:29;19.50;60.00
10062;DHT22;5070;52.382;5.270;2024-01-06T03:36:57;19.40;59.90
10062;DHT22;5070;52.382;5.270;2024-01-06T03:39:25;19.40;59.90
10062;DHT22;5070;52.382;5.270;2024-01-06T03:41:53;19.40;59.90
10062;DHT22;5070;52.382;5.270;2024-01-06T03:44:21;19.40;59.90
10062;DHT22;5070;52.382;5.270;2024-01-06T03:46:49;19.40;59.90
10062;DHT22;5070;52.382;5.270;2024-01-06T03:49:18;19.30;59.80
10062;DHT22;5070;52.382;5.270;2024-01-06T03:51:47;19.30;59.80
10062;DHT22;5070;52.382;5.270;2024-01-06T03:54:15;19.30;59.80
10062;DHT22;5070;52.382;5.270;2024-01-06T03:56:43;19.30;59.80
10062;DHT22;5070;52.382;5.270;2024-01-06T03:59:11;19.30;60.10
10062;DHT22;5070;52.382;5.270;2024-01-06T04:01:39;19.40;61.30
10062;DHT22;5070;52.382;5.270;2024-01-06T04:04:07;19.50;61.10
10062;DHT22;5070;52.382;5.270;2024-01-06T04:06:37;19.50;60.30
10062;DHT22;5070;52.382;5.270;2024-01-06T04:09:05;19.60;59.90
10062;DHT22;5070;52.382;5.270;2024-01-06T04:11:33;19.60;59.60
10062;DHT22;5070;52.382;5.270;2024-01-06T04:14:01;19.70;59.50
10062;DHT22;5070;52.382;5.270;2024-01-06T04:16:29;19.70;59.50
10062;DHT22;5070;52.382;5.270;2024-01-06T04:18:57;19.80;59.60
10062;DHT22;5070;52.382;5.270;2024-01-06T04:21:25;19.80;59.70
10062;DHT22;5070;52.382;5.270;2024-01-06T04:23:54;19.70;59.90
10062;DHT22;5070;52.382;5.270;2024-01-06T04:26:31;19.70;60.30
10062;DHT22;5070;52.382;5.270;2024-01-06T04:28:59;19.70;60.00
10062;DHT22;5070;52.382;5.270;2024-01-06T04:31:27;19.70;60.10
10062;DHT22;5070;52.382;5.270;2024-01-06T04:33:55;19.60;60.00
10062;DHT22;5070;52.382;5.270;2024-01-06T04:36:24;19.60;60.00
10062;DHT22;5070;52.382;5.270;2024-01-06T04:38:51;19.60;59.90
10062;DHT22;5070;52.382;5.270;2024-01-06T04:41:21;19.50;59.70
10062;DHT22;5070;52.382;5.270;2024-01-06T04:43:49;19.50;59.70
10062;DHT22;5070;52.382;5.270;2024-01-06T04:46:17;19.50;59.70
10062;DHT22;5070;52.382;5.270;2024-01-06T04:48:45;19.40;59.60
10062;DHT22;5070;52.382;5.270;2024-01-06T04:51:13;19.40;59.50
10062;DHT22;5070;52.382;5.270;2024-01-06T04:53:42;19.40;59.60
10062;DHT22;5070;52.382;5.270;2024-01-06T04:56:10;19.40;59.60
10062;DHT22;5070;52.382;5.270;2024-01-06T04:58:42;19.40;59.50
10062;DHT22;5070;52.382;5.270;2024-01-06T05:01:13;19.40;59.50
10062;DHT22;5070;52.382;5.270;2024-01-06T05:03:41;19.30;59.40
10062;DHT22;5070;52.382;5.270;2024-01-06T05:06:10;19.30;59.40
10062;DHT22;5070;52.382;5.270;2024-01-06T05:08:38;19.30;59.40
10062;DHT22;5070;52.382;5.270;2024-01-06T05:11:11;19.30;59.40
10062;DHT22;5070;52.382;5.270;2024-01-06T05:13:39;19.20;59.40
10062;DHT22;5070;52.382;5.270;2024-01-06T05:16:08;19.30;59.40
10062;DHT22;5070;52.382;5.270;2024-01-06T05:18:38;19.30;60.20
10062;DHT22;5070;52.382;5.270;2024-01-06T05:21:06;19.40;60.70
10062;DHT22;5070;52.382;5.270;2024-01-06T05:23:34;19.40;61.10
10062;DHT22;5070;52.382;5.270;2024-01-06T05:26:02;19.50;60.20
10062;DHT22;5070;52.382;5.270;2024-01-06T05:28:31;19.50;59.80
10062;DHT22;5070;52.382;5.270;2024-01-06T05:30:59;19.50;59.50
10062;DHT22;5070;52.382;5.270;2024-01-06T05:33:28;19.60;59.30
10062;DHT22;5070;52.382;5.270;2024-01-06T05:35:57;19.60;59.20
10062;DHT22;5070;52.382;5.270;2024-01-06T05:38:25;19.70;59.30
10062;DHT22;5070;52.382;5.270;2024-01-06T05:40:53;19.60;59.20
10062;DHT22;5070;52.382;5.270;2024-01-06T05:43:21;19.60;59.30
10062;DHT22;5070;52.382;5.270;2024-01-06T05:45:49;19.60;59.60
10062;DHT22;5070;52.382;5.270;2024-01-06T05:48:17;19.60;59.70
10062;DHT22;5070;52.382;5.270;2024-01-06T05:50:47;19.60;59.60
10062;DHT22;5070;52.382;5.270;2024-01-06T05:53:15;19.60;59.60
10062;DHT22;5070;52.382;5.270;2024-01-06T05:55:45;19.60;59.50
10062;DHT22;5070;52.382;5.270;2024-01-06T05:58:13;19.60;59.50
10062;DHT22;5070;52.382;5.270;2024-01-06T06:00:41;19.50;59.40
10062;DHT22;5070;52.382;5.270;2024-01-06T06:03:09;19.50;59.40
10062;DHT22;5070;52.382;5.270;2024-01-06T06:05:37;19.50;59.30
10062;DHT22;5070;52.382;5.270;2024-01-06T06:08:06;19.40;59.20
10062;DHT22;5070;52.382;5.270;2024-01-06T06:10:34;19.40;59.20
10062;DHT22;5070;52.382;5.270;2024-01-06T06:13:18;19.40;59.20
10062;DHT22;5070;52.382;5.270;2024-01-06T06:15:46;19.40;59.20
10062;DHT22;5070;52.382;5.270;2024-01-06T06:18:14;19.40;59.10
10062;DHT22;5070;52.382;5.270;2024-01-06T06:20:43;19.30;59.10
10062;DHT22;5070;52.382;5.270;2024-01-06T06:23:12;19.30;59.10
10062;DHT22;5070;52.382;5.270;2024-01-06T06:25:40;19.30;59.10
10062;DHT22;5070;52.382;5.270;2024-01-06T06:28:08;19.30;59.10
10062;DHT22;5070;52.382;5.270;2024-01-06T06:30:36;19.30;59.10
10062;DHT22;5070;52.382;5.270;2024-01-06T06:33:04;19.20;59.00
10062;DHT22;5070;52.382;5.270;2024-01-06T06:35:32;19.20;59.00
10062;DHT22;5070;52.382;5.270;2024-01-06T06:38:00;19.20;59.20
10062;DHT22;5070;52.382;5.270;2024-01-06T06:40:30;19.20;60.40
10062;DHT22;5070;52.382;5.270;2024-01-06T06:42:58;19.30;61.20
10062;DHT22;5070;52.382;5.270;2024-01-06T06:45:26;19.30;60.50
10062;DHT22;5070;52.382;5.270;2024-01-06T06:47:54;19.30;60.00
10062;DHT22;5070;52.382;5.270;2024-01-06T06:50:22;19.40;59.80
10062;DHT22;5070;52.382;5.270;2024-01-06T06:52:50;19.50;59.50
10062;DHT22;5070;52.382;5.270;2024-01-06T06:55:19;19.60;59.30
10062;DHT22;5070;52.382;5.270;2024-01-06T06:57:48;19.60;59.30
10062;DHT22;5070;52.382;5.270;2024-01-06T07:00:17;19.60;59.70
10062;DHT22;5070;52.382;5.270;2024-01-06T07:02:45;19.60;60.00
10062;DHT22;5070;52.382;5.270;2024-01-06T07:05:13;19.60;59.60
10062;DHT22;5070;52.382;5.270;2024-01-06T07:07:41;19.60;59.40
10062;DHT22;5070;52.382;5.270;2024-01-06T07:10:11;19.70;59.30
10062;DHT22;5070;52.382;5.270;2024-01-06T07:12:39;19.70;59.30
10062;DHT22;5070;52.382;5.270;2024-01-06T07:15:09;19.80;59.00
10062;DHT22;5070;52.382;5.270;2024-01-06T07:17:41;19.80;58.80
10062;DHT22;5070;52.382;5.270;2024-01-06T07:20:09;19.90;58.80
10062;DHT22;5070;52.382;5.270;2024-01-06T07:22:37;19.90;58.70
10062;DHT22;5070;52.382;5.270;2024-01-06T07:25:06;19.90;58.60
10062;DHT22;5070;52.382;5.270;2024-01-06T07:27:34;20.00;58.50
10062;DHT22;5070;52.382;5.270;2024-01-06T07:30:03;20.00;58.50
10062;DHT22;5070;52.382;5.270;2024-01-06T07:32:32;20.10;58.50
10062;DHT22;5070;52.382;5.270;2024-01-06T07:35:01;20.10;58.40
10062;DHT22;5070;52.382;5.270;2024-01-06T07:37:33;20.10;58.30
10062;DHT22;5070;52.382;5.270;2024-01-06T07:40:01;20.10;58.30
10062;DHT22;5070;52.382;5.270;2024-01-06T07:42:29;20.20;58.30
10062;DHT22;5070;52.382;5.270;2024-01-06T07:44:58;20.20;58.30
10062;DHT22;5070;52.382;5.270;2024-01-06T07:47:26;20.20;58.20
10062;DHT22;5070;52.382;5.270;2024-01-06T07:49:56;20.20;58.10
10062;DHT22;5070;52.382;5.270;2024-01-06T07:52:24;20.30;58.10
10062;DHT22;5070;52.382;5.270;2024-01-06T07:54:52;20.30;58.10
10062;DHT22;5070;52.382;5.270;2024-01-06T07:57:20;20.30;58.00
10062;DHT22;5070;52.382;5.270;2024-01-06T07:59:48;20.30;58.00
10062;DHT22;5070;52.382;5.270;2024-01-06T08:02:17;20.30;58.20
10062;DHT22;5070;52.382;5.270;2024-01-06T08:04:45;20.20;58.40
10062;DHT22;5070;52.382;5.270;2024-01-06T08:07:14;20.20;58.40
10062;DHT22;5070;52.382;5.270;2024-01-06T08:09:42;20.30;58.80
10062;DHT22;5070;52.382;5.270;2024-01-06T08:12:10;20.20;59.20
10062;DHT22;5070;52.382;5.270;2024-01-06T08:14:39;20.20;59.30
10062;DHT22;5070;52.382;5.270;2024-01-06T08:17:07;20.20;59.40
10062;DHT22;5070;52.382;5.270;2024-01-06T08:19:34;20.10;59.40
10062;DHT22;5070;52.382;5.270;2024-01-06T08:22:03;20.20;59.30
10062;DHT22;5070;52.382;5.270;2024-01-06T08:24:32;20.20;59.60
10062;DHT22;5070;52.382;5.270;2024-01-06T08:27:00;20.30;58.90
10062;DHT22;5070;52.382;5.270;2024-01-06T08:29:28;20.30;58.70
10062;DHT22;5070;52.382;5.270;2024-01-06T08:31:56;20.40;58.60
10062;DHT22;5070;52.382;5.270;2024-01-06T08:34:26;20.40;58.40
10062;DHT22;5070;52.382;5.270;2024-01-06T08:36:58;20.50;58.40
10062;DHT22;5070;52.382;5.270;2024-01-06T08:39:26;20.60;58.30
10062;DHT22;5070;52.382;5.270;2024-01-06T08:41:56;20.60;58.40
10062;DHT22;5070;52.382;5.270;2024-01-06T08:44:27;20.60;58.50
10062;DHT22;5070;52.382;5.270;2024-01-06T08:46:55;20.50;58.50
10062;DHT22;5070;52.382;5.270;2024-01-06T08:49:23;20.50;58.80
10062;DHT22;5070;52.382;5.270;2024-01-06T08:51:52;20.40;58.90
10062;DHT22;5070;52.382;5.270;2024-01-06T08:54:20;20.40;59.20
10062;DHT22;5070;52.382;5.270;2024-01-06T08:56:48;20.40;59.30
10062;DHT22;5070;52.382;5.270;2024-01-06T08:59:17;20.40;59.40
10062;DHT22;5070;52.382;5.270;2024-01-06T09:01:46;20.30;59.40
10062;DHT22;5070;52.382;5.270;2024-01-06T09:04:16;20.30;59.30
10062;DHT22;5070;52.382;5.270;2024-01-06T09:06:44;20.30;58.90
10062;DHT22;5070;52.382;5.270;2024-01-06T09:09:13;20.40;58.70
10062;DHT22;5070;52.382;5.270;2024-01-06T09:11:41;20.40;58.60
10062;DHT22;5070;52.382;5.270;2024-01-06T09:14:10;20.50;58.40
10062;DHT22;5070;52.382;5.270;2024-01-06T09:16:40;20.50;58.30
10062;DHT22;5070;52.382;5.270;2024-01-06T09:19:08;20.60;58.20
10062;DHT22;5070;52.382;5.270;2024-01-06T09:21:36;20.60;58.10
10062;DHT22;5070;52.382;5.270;2024-01-06T09:24:04;20.60;58.20
10062;DHT22;5070;52.382;5.270;2024-01-06T09:26:33;20.60;58.30
10062;DHT22;5070;52.382;5.270;2024-01-06T09:29:01;20.50;58.40
10062;DHT22;5070;52.382;5.270;2024-01-06T09:31:30;20.50;58.70
10062;DHT22;5070;52.382;5.270;2024-01-06T09:34:01;20.50;58.70
10062;DHT22;5070;52.382;5.270;2024-01-06T09:36:31;20.40;58.90
10062;DHT22;5070;52.382;5.270;2024-01-06T09:38:59;20.40;58.90
10062;DHT22;5070;52.382;5.270;2024-01-06T09:41:27;20.40;58.90
10062;DHT22;5070;52.382;5.270;2024-01-06T09:43:55;20.30;58.80
10062;DHT22;5070;52.382;5.270;2024-01-06T09:46:25;20.20;59.00
10062;DHT22;5070;52.382;5.270;2024-01-06T09:48:54;20.20;59.10
10062;DHT22;5070;52.382;5.270;2024-01-06T09:51:24;20.30;58.90
10062;DHT22;5070;52.382;5.270;2024-01-06T09:53:57;20.30;58.60
10062;DHT22;5070;52.382;5.270;2024-01-06T09:56:26;20.40;58.50
10062;DHT22;5070;52.382;5.270;2024-01-06T09:58:54;20.50;58.40
10062;DHT22;5070;52.382;5.270;2024-01-06T10:01:23;20.50;58.30
10062;DHT22;5070;52.382;5.270;2024-01-06T10:03:51;20.60;58.30
10062;DHT22;5070;52.382;5.270;2024-01-06T10:06:19;20.60;58.20
10062;DHT22;5070;52.382;5.270;2024-01-06T10:08:50;20.60;58.20
10062;DHT22;5070;52.382;5.270;2024-01-06T10:11:19;20.60;58.30
10062;DHT22;5070;52.382;5.270;2024-01-06T10:13:48;20.60;58.30
10062;DHT22;5070;52.382;5.270;2024-01-06T10:16:16;20.60;58.20
10062;DHT22;5070;52.382;5.270;2024-01-06T10:18:44;20.50;58.20
10062;DHT22;5070;52.382;5.270;2024-01-06T10:21:20;20.50;58.40
10062;DHT22;5070;52.382;5.270;2024-01-06T10:23:50;20.50;58.30
10062;DHT22;5070;52.382;5.270;2024-01-06T10:26:18;20.50;58.60
10062;DHT22;5070;52.382;5.270;2024-01-06T10:28:48;20.40;58.60
10062;DHT22;5070;52.382;5.270;2024-01-06T10:31:17;20.30;58.60
10062;DHT22;5070;52.382;5.270;2024-01-06T10:33:45;20.40;58.90
10062;DHT22;5070;52.382;5.270;2024-01-06T10:36:14;20.40;58.60
10062;DHT22;5070;52.382;5.270;2024-01-06T10:38:44;20.40;58.30
10062;DHT22;5070;52.382;5.270;2024-01-06T10:41:15;20.40;58.00
10062;DHT22;5070;52.382;5.270;2024-01-06T10:43:44;20.50;57.90
10062;DHT22;5070;52.382;5.270;2024-01-06T10:46:14;20.60;57.80
10062;DHT22;5070;52.382;5.270;2024-01-06T10:48:43;20.60;57.60
10062;DHT22;5070;52.382;5.270;2024-01-06T10:51:13;20.70;57.50
10062;DHT22;5070;52.382;5.270;2024-01-06T10:53:43;20.70;57.50
10062;DHT22;5070;52.382;5.270;2024-01-06T10:56:12;20.70;57.50
10062;DHT22;5070;52.382;5.270;2024-01-06T10:58:45;20.60;57.70
10062;DHT22;5070;52.382;5.270;2024-01-06T11:01:16;20.60;57.80
10062;DHT22;5070;52.382;5.270;2024-01-06T11:03:50;20.60;58.00
10062;DHT22;5070;52.382;5.270;2024-01-06T11:06:21;20.60;58.20
10062;DHT22;5070;52.382;5.270;2024-01-06T11:08:54;20.60;58.30
10062;DHT22;5070;52.382;5.270;2024-01-06T11:11:28;20.50;58.20
10062;DHT22;5070;52.382;5.270;2024-01-06T11:14:18;20.50;58.10
10062;DHT22;5070;52.382;5.270;2024-01-06T11:16:46;20.40;58.00
10062;DHT22;5070;52.382;5.270;2024-01-06T11:19:42;20.40;58.00
10062;DHT22;5070;52.382;5.270;2024-01-06T11:22:20;20.30;58.30
10062;DHT22;5070;52.382;5.270;2024-01-06T11:24:50;20.40;58.80
10062;DHT22;5070;52.382;5.270;2024-01-06T11:27:20;20.40;58.40
10062;DHT22;5070;52.382;5.270;2024-01-06T11:29:51;20.40;58.00
10062;DHT22;5070;52.382;5.270;2024-01-06T11:32:26;20.50;57.80
10062;DHT22;5070;52.382;5.270;2024-01-06T11:34:56;20.60;57.70
10062;DHT22;5070;52.382;5.270;2024-01-06T11:37:35;20.60;57.50
10062;DHT22;5070;52.382;5.270;2024-01-06T11:40:08;20.60;57.40
10062;DHT22;5070;52.382;5.270;2024-01-06T11:42:41;20.70;57.30
10062;DHT22;5070;52.382;5.270;2024-01-06T11:45:09;20.70;57.30
10062;DHT22;5070;52.382;5.270;2024-01-06T11:47:37;20.70;57.40
10062;DHT22;5070;52.382;5.270;2024-01-06T11:50:06;20.70;57.50
10062;DHT22;5070;52.382;5.270;2024-01-06T11:52:34;20.70;57.60
10062;DHT22;5070;52.382;5.270;2024-01-06T11:55:03;20.70;57.70
10062;DHT22;5070;52.382;5.270;2024-01-06T11:57:31;20.60;58.30
10062;DHT22;5070;52.382;5.270;2024-01-06T12:00:00;20.60;58.50
10062;DHT22;5070;52.382;5.270;2024-01-06T12:02:32;20.60;58.50
10062;DHT22;5070;52.382;5.270;2024-01-06T12:05:00;20.50;58.40
10062;DHT22;5070;52.382;5.270;2024-01-06T12:07:29;20.50;58.30
10062;DHT22;5070;52.382;5.270;2024-01-06T12:10:02;20.50;58.80
10062;DHT22;5070;52.382;5.270;2024-01-06T12:12:31;20.40;58.90
10062;DHT22;5070;52.382;5.270;2024-01-06T12:15:01;20.40;58.70
10062;DHT22;5070;52.382;5.270;2024-01-06T12:17:30;20.30;59.30
10062;DHT22;5070;52.382;5.270;2024-01-06T12:19:59;20.30;61.10
10062;DHT22;5070;52.382;5.270;2024-01-06T12:22:28;20.30;60.20
10062;DHT22;5070;52.382;5.270;2024-01-06T12:24:58;20.40;59.40
10062;DHT22;5070;52.382;5.270;2024-01-06T12:27:26;20.40;59.10
10062;DHT22;5070;52.382;5.270;2024-01-06T12:29:54;20.50;58.80
10062;DHT22;5070;52.382;5.270;2024-01-06T12:32:24;20.50;58.70
10062;DHT22;5070;52.382;5.270;2024-01-06T12:34:52;20.60;58.60
10062;DHT22;5070;52.382;5.270;2024-01-06T12:37:22;20.60;58.50
10062;DHT22;5070;52.382;5.270;2024-01-06T12:39:50;20.70;58.50
10062;DHT22;5070;52.382;5.270;2024-01-06T12:42:19;20.70;58.50
10062;DHT22;5070;52.382;5.270;2024-01-06T12:44:48;20.60;58.40
10062;DHT22;5070;52.382;5.270;2024-01-06T12:47:17;20.60;58.40
10062;DHT22;5070;52.382;5.270;2024-01-06T12:49:47;20.60;58.50
10062;DHT22;5070;52.382;5.270;2024-01-06T12:52:15;20.60;58.70
10062;DHT22;5070;52.382;5.270;2024-01-06T12:54:43;20.60;59.00
10062;DHT22;5070;52.382;5.270;2024-01-06T12:57:13;20.60;59.30
10062;DHT22;5070;52.382;5.270;2024-01-06T12:59:42;20.50;59.60
10062;DHT22;5070;52.382;5.270;2024-01-06T13:02:11;20.50;60.00
10062;DHT22;5070;52.382;5.270;2024-01-06T13:04:39;20.40;60.50
10062;DHT22;5070;52.382;5.270;2024-01-06T13:07:08;20.30;61.30
10062;DHT22;5070;52.382;5.270;2024-01-06T13:09:36;20.30;61.40
10062;DHT22;5070;52.382;5.270;2024-01-06T13:12:06;20.40;59.90
10062;DHT22;5070;52.382;5.270;2024-01-06T13:14:34;20.40;59.30
10062;DHT22;5070;52.382;5.270;2024-01-06T13:17:03;20.40;58.90
10062;DHT22;5070;52.382;5.270;2024-01-06T13:19:32;20.50;58.60
10062;DHT22;5070;52.382;5.270;2024-01-06T13:22:01;20.60;58.40
10062;DHT22;5070;52.382;5.270;2024-01-06T13:24:30;20.60;58.20
10062;DHT22;5070;52.382;5.270;2024-01-06T13:26:58;20.70;58.10
10062;DHT22;5070;52.382;5.270;2024-01-06T13:29:29;20.70;58.10
10062;DHT22;5070;52.382;5.270;2024-01-06T13:31:57;20.70;58.20
10062;DHT22;5070;52.382;5.270;2024-01-06T13:34:27;20.60;58.30
10062;DHT22;5070;52.382;5.270;2024-01-06T13:36:57;20.60;58.50
10062;DHT22;5070;52.382;5.270;2024-01-06T13:39:25;20.60;58.50
10062;DHT22;5070;52.382;5.270;2024-01-06T13:41:54;20.60;58.50
10062;DHT22;5070;52.382;5.270;2024-01-06T13:44:22;20.60;58.60
10062;DHT22;5070;52.382;5.270;2024-01-06T13:46:50;20.50;58.80
10062;DHT22;5070;52.382;5.270;2024-01-06T13:49:21;20.50;58.90
10062;DHT22;5070;52.382;5.270;2024-01-06T13:51:49;20.40;58.90
10062;DHT22;5070;52.382;5.270;2024-01-06T13:54:17;20.40;58.90
10062;DHT22;5070;52.382;5.270;2024-01-06T13:56:46;20.30;59.00
10062;DHT22;5070;52.382;5.270;2024-01-06T13:59:16;20.40;59.50
10062;DHT22;5070;52.382;5.270;2024-01-06T14:01:44;20.40;59.40
10062;DHT22;5070;52.382;5.270;2024-01-06T14:04:12;20.50;58.70
10062;DHT22;5070;52.382;5.270;2024-01-06T14:06:41;20.50;58.30
10062;DHT22;5070;52.382;5.270;2024-01-06T14:09:09;20.60;58.20
10062;DHT22;5070;52.382;5.270;2024-01-06T14:11:38;20.60;58.00
10062;DHT22;5070;52.382;5.270;2024-01-06T14:14:06;20.70;57.80
10062;DHT22;5070;52.382;5.270;2024-01-06T14:16:36;20.70;57.70
10062;DHT22;5070;52.382;5.270;2024-01-06T14:19:04;20.60;57.60
10062;DHT22;5070;52.382;5.270;2024-01-06T14:21:32;20.70;57.80
10062;DHT22;5070;52.382;5.270;2024-01-06T14:24:00;20.60;57.70
10062;DHT22;5070;52.382;5.270;2024-01-06T14:26:30;20.60;57.80
10062;DHT22;5070;52.382;5.270;2024-01-06T14:28:58;20.60;57.90
10062;DHT22;5070;52.382;5.270;2024-01-06T14:31:26;20.60;57.80
10062;DHT22;5070;52.382;5.270;2024-01-06T14:33:56;20.60;57.80
10062;DHT22;5070;52.382;5.270;2024-01-06T14:36:27;20.50;57.90
10062;DHT22;5070;52.382;5.270;2024-01-06T14:38:55;20.50;58.10
10062;DHT22;5070;52.382;5.270;2024-01-06T14:41:23;20.40;58.10
10062;DHT22;5070;52.382;5.270;2024-01-06T14:43:51;20.40;58.10
10062;DHT22;5070;52.382;5.270;2024-01-06T14:46:19;20.40;57.80
10062;DHT22;5070;52.382;5.270;2024-01-06T14:48:47;20.40;58.80
10062;DHT22;5070;52.382;5.270;2024-01-06T14:51:17;20.40;58.10
10062;DHT22;5070;52.382;5.270;2024-01-06T14:53:45;20.50;57.60
10062;DHT22;5070;52.382;5.270;2024-01-06T14:56:13;20.50;57.30
10062;DHT22;5070;52.382;5.270;2024-01-06T14:58:41;20.50;57.70
10062;DHT22;5070;52.382;5.270;2024-01-06T15:01:09;20.50;57.40
10062;DHT22;5070;52.382;5.270;2024-01-06T15:03:37;20.60;57.40
10062;DHT22;5070;52.382;5.270;2024-01-06T15:06:05;20.60;57.20
10062;DHT22;5070;52.382;5.270;2024-01-06T15:08:35;20.60;57.20
10062;DHT22;5070;52.382;5.270;2024-01-06T15:11:03;20.70;57.30
10062;DHT22;5070;52.382;5.270;2024-01-06T15:13:31;20.60;57.40
10062;DHT22;5070;52.382;5.270;2024-01-06T15:15:59;20.60;57.30
10062;DHT22;5070;52.382;5.270;2024-01-06T15:18:27;20.60;57.50
10062;DHT22;5070;52.382;5.270;2024-01-06T15:20:55;20.60;57.50
10062;DHT22;5070;52.382;5.270;2024-01-06T15:23:24;20.50;57.50
10062;DHT22;5070;52.382;5.270;2024-01-06T15:25:53;20.40;57.60
10062;DHT22;5070;52.382;5.270;2024-01-06T15:28:21;20.40;57.60
10062;DHT22;5070;52.382;5.270;2024-01-06T15:30:52;20.40;57.70
10062;DHT22;5070;52.382;5.270;2024-01-06T15:33:20;20.40;57.50
10062;DHT22;5070;52.382;5.270;2024-01-06T15:35:49;20.50;57.30
10062;DHT22;5070;52.382;5.270;2024-01-06T15:38:16;20.50;57.10
10062;DHT22;5070;52.382;5.270;2024-01-06T15:40:44;20.60;57.20
10062;DHT22;5070;52.382;5.270;2024-01-06T15:43:14;20.60;57.00
10062;DHT22;5070;52.382;5.270;2024-01-06T15:45:42;20.60;56.90
10062;DHT22;5070;52.382;5.270;2024-01-06T15:48:10;20.60;56.80
10062;DHT22;5070;52.382;5.270;2024-01-06T15:50:38;20.70;56.80
10062;DHT22;5070;52.382;5.270;2024-01-06T15:53:06;20.70;56.80
10062;DHT22;5070;52.382;5.270;2024-01-06T15:55:34;20.60;56.90